sensor_id;sensor_type;location;lat;lon;timestamp;P1;durP1;ratioP1;P2;durP2;ratioP2
71759;SDS011;59919;48.112;16.280;2023-03-01T00:02:30;6.55;;;5.38;;
71759;SDS011;59919;48.112;16.280;2023-03-01T00:05:01;7.97;;;5.68;;
71759;SDS011;59919;48.112;16.280;2023-03-01T00:07:32;7.65;;;5.38;;
71759;SDS011;59919;48.112;16.280;2023-03-01T00:10:04;6.95;;;5.50;;
71759;SDS011;59919;48.112;16.280;2023-03-01T00:12:35;6.47;;;4.90;;
71759;SDS011;59919;48.112;16.280;2023-03-01T00:15:11;6.40;;;5.68;;
71759;SDS011;59919;48.112;16.280;2023-03-01T00:17:42;7.97;;;6.20;;
71759;SDS011;59919;48.112;16.280;2023-03-01T00:20:18;6.40;;;5.30;;
71759;SDS011;59919;48.112;16.280;2023-03-01T00:22:49;6.75;;;5.25;;
71759;SDS011;59919;48.112;16.280;2023-03-01T00:25:23;6.40;;;5.15;;
71759;SDS011;59919;48.112;16.280;2023-03-01T00:27:54;6.82;;;5.80;;
71759;SDS011;59919;48.112;16.280;2023-03-01T00:30:28;7.82;;;5.82;;
71759;SDS011;59919;48.112;16.280;2023-03-01T00:33:02;8.55;;;5.70;;
71759;SDS011;59919;48.112;16.280;2023-03-01T00:35:35;8.27;;;5.85;;
71759;SDS011;59919;48.112;16.280;2023-03-01T00:38:07;10.00;;;6.38;;
71759;SDS011;59919;48.112;16.280;2023-03-01T00:40:40;7.75;;;5.80;;
71759;SDS011;59919;48.112;16.280;2023-03-01T00:43:18;7.00;;;5.63;;
71759;SDS011;59919;48.112;16.280;2023-03-01T00:45:51;7.53;;;6.22;;
71759;SDS011;59919;48.112;16.280;2023-03-01T00:48:22;8.02;;;6.05;;
71759;SDS011;59919;48.112;16.280;2023-03-01T00:50:53;7.72;;;5.82;;
71759;SDS011;59919;48.112;16.280;2023-03-01T00:53:24;8.32;;;6.30;;
71759;SDS011;59919;48.112;16.280;2023-03-01T00:55:56;8.02;;;6.03;;
71759;SDS011;59919;48.112;16.280;2023-03-01T00:58:30;8.00;;;6.00;;
71759;SDS011;59919;48.112;16.280;2023-03-01T01:01:23;7.22;;;5.78;;
71759;SDS011;59919;48.112;16.280;2023-03-01T01:03:55;7.13;;;6.03;;
71759;SDS011;59919;48.112;16.280;2023-03-01T01:06:32;7.75;;;5.93;;
71759;SDS011;59919;48.112;16.280;2023-03-01T01:09:07;7.95;;;6.05;;
71759;SDS011;59919;48.112;16.280;2023-03-01T01:11:48;7.90;;;5.90;;
71759;SDS011;59919;48.112;16.280;2023-03-01T01:14:20;9.00;;;6.35;;
71759;SDS011;59919;48.112;16.280;2023-03-01T01:16:52;7.38;;;5.78;;
71759;SDS011;59919;48.112;16.280;2023-03-01T01:19:23;10.38;;;6.55;;
71759;SDS011;59919;48.112;16.280;2023-03-01T01:21:55;8.02;;;6.15;;
71759;SDS011;59919;48.112;16.280;2023-03-01T01:24:26;7.95;;;6.47;;
71759;SDS011;59919;48.112;16.280;2023-03-01T01:26:58;7.38;;;5.97;;
71759;SDS011;59919;48.112;16.280;2023-03-01T01:29:29;8.13;;;6.57;;
71759;SDS011;59919;48.112;16.280;2023-03-01T01:32:00;7.80;;;6.25;;
71759;SDS011;59919;48.112;16.280;2023-03-01T01:34:33;7.20;;;6.28;;
71759;SDS011;59919;48.112;16.280;2023-03-01T01:37:06;7.80;;;6.30;;
71759;SDS011;59919;48.112;16.280;2023-03-01T01:39:40;8.98;;;6.43;;
71759;SDS011;59919;48.112;16.280;2023-03-01T01:42:15;8.98;;;6.28;;
71759;SDS011;59919;48.112;16.280;2023-03-01T01:45:15;8.70;;;6.60;;
71759;SDS011;59919;48.112;16.280;2023-03-01T01:48:03;7.55;;;6.40;;
71759;SDS011;59919;48.112;16.280;2023-03-01T01:50:39;9.15;;;6.82;;
71759;SDS011;59919;48.112;16.280;2023-03-01T01:53:17;8.57;;;6.78;;
71759;SDS011;59919;48.112;16.280;2023-03-01T01:55:56;8.38;;;6.45;;
71759;SDS011;59919;48.112;16.280;2023-03-01T01:58:32;8.77;;;6.72;;
71759;SDS011;59919;48.112;16.280;2023-03-01T02:01:04;8.45;;;6.45;;
71759;SDS011;59919;48.112;16.280;2023-03-01T02:03:41;9.25;;;6.95;;
71759;SDS011;59919;48.112;16.280;2023-03-01T02:09:18;8.07;;;6.57;;
71759;SDS011;59919;48.112;16.280;2023-03-01T02:11:51;7.65;;;6.05;;
71759;SDS011;59919;48.112;16.280;2023-03-01T02:14:26;7.95;;;6.00;;
71759;SDS011;59919;48.112;16.280;2023-03-01T02:16:57;7.88;;;6.72;;
71759;SDS011;59919;48.112;16.280;2023-03-01T02:22:37;8.33;;;6.90;;
71759;SDS011;59919;48.112;16.280;2023-03-01T02:27:53;9.52;;;6.20;;
71759;SDS011;59919;48.112;16.280;2023-03-01T02:30:47;9.20;;;6.82;;
71759;SDS011;59919;48.112;16.280;2023-03-01T02:33:38;9.80;;;6.28;;
71759;SDS011;59919;48.112;16.280;2023-03-01T02:36:14;9.57;;;6.38;;
71759;SDS011;59919;48.112;16.280;2023-03-01T02:38:50;8.73;;;6.70;;
71759;SDS011;59919;48.112;16.280;2023-03-01T02:41:30;8.05;;;6.57;;
71759;SDS011;59919;48.112;16.280;2023-03-01T02:44:08;9.18;;;6.35;;
71759;SDS011;59919;48.112;16.280;2023-03-01T02:46:46;9.15;;;6.55;;
71759;SDS011;59919;48.112;16.280;2023-03-01T02:52:01;7.95;;;6.15;;
71759;SDS011;59919;48.112;16.280;2023-03-01T02:54:41;9.80;;;6.77;;
71759;SDS011;59919;48.112;16.280;2023-03-01T02:57:18;9.50;;;7.07;;
71759;SDS011;59919;48.112;16.280;2023-03-01T02:59:50;8.65;;;6.93;;
71759;SDS011;59919;48.112;16.280;2023-03-01T03:02:24;9.38;;;7.03;;
71759;SDS011;59919;48.112;16.280;2023-03-01T03:05:10;7.85;;;6.28;;
71759;SDS011;59919;48.112;16.280;2023-03-01T03:07:44;9.57;;;7.13;;
71759;SDS011;59919;48.112;16.280;2023-03-01T03:10:24;8.23;;;6.32;;
71759;SDS011;59919;48.112;16.280;2023-03-01T03:13:01;8.73;;;6.57;;
71759;SDS011;59919;48.112;16.280;2023-03-01T03:15:50;11.15;;;6.80;;
71759;SDS011;59919;48.112;16.280;2023-03-01T03:18:22;9.10;;;6.80;;
71759;SDS011;59919;48.112;16.280;2023-03-01T03:20:57;8.48;;;6.47;;
71759;SDS011;59919;48.112;16.280;2023-03-01T03:23:30;9.77;;;7.13;;
71759;SDS011;59919;48.112;16.280;2023-03-01T03:26:03;9.50;;;6.88;;
71759;SDS011;59919;48.112;16.280;2023-03-01T03:28:35;8.68;;;6.75;;
71759;SDS011;59919;48.112;16.280;2023-03-01T03:31:10;9.85;;;6.78;;
71759;SDS011;59919;48.112;16.280;2023-03-01T03:33:41;8.63;;;6.30;;
71759;SDS011;59919;48.112;16.280;2023-03-01T03:36:19;8.75;;;6.72;;
71759;SDS011;59919;48.112;16.280;2023-03-01T03:38:56;8.98;;;6.93;;
71759;SDS011;59919;48.112;16.280;2023-03-01T03:41:30;10.40;;;6.47;;
71759;SDS011;59919;48.112;16.280;2023-03-01T03:44:06;9.18;;;6.50;;
71759;SDS011;59919;48.112;16.280;2023-03-01T03:46:40;10.35;;;6.97;;
71759;SDS011;59919;48.112;16.280;2023-03-01T03:49:11;10.85;;;7.35;;
71759;SDS011;59919;48.112;16.280;2023-03-01T03:51:45;7.97;;;6.20;;
71759;SDS011;59919;48.112;16.280;2023-03-01T03:54:19;10.35;;;6.70;;
71759;SDS011;59919;48.112;16.280;2023-03-01T03:56:50;8.70;;;6.47;;
71759;SDS011;59919;48.112;16.280;2023-03-01T03:59:21;7.38;;;5.97;;
71759;SDS011;59919;48.112;16.280;2023-03-01T04:01:52;7.40;;;6.35;;
71759;SDS011;59919;48.112;16.280;2023-03-01T04:04:23;8.60;;;6.55;;
71759;SDS011;59919;48.112;16.280;2023-03-01T04:06:54;8.80;;;6.90;;
71759;SDS011;59919;48.112;16.280;2023-03-01T04:09:25;9.75;;;7.15;;
71759;SDS011;59919;48.112;16.280;2023-03-01T04:12:01;10.18;;;6.97;;
71759;SDS011;59919;48.112;16.280;2023-03-01T04:14:35;10.55;;;6.75;;
71759;SDS011;59919;48.112;16.280;2023-03-01T04:17:09;8.70;;;6.63;;
71759;SDS011;59919;48.112;16.280;2023-03-01T04:19:45;8.93;;;6.35;;
71759;SDS011;59919;48.112;16.280;2023-03-01T04:22:19;9.65;;;6.68;;
71759;SDS011;59919;48.112;16.280;2023-03-01T04:24:50;9.60;;;6.95;;
71759;SDS011;59919;48.112;16.280;2023-03-01T04:27:21;8.73;;;6.72;;
71759;SDS011;59919;48.112;16.280;2023-03-01T04:29:52;8.95;;;6.93;;
71759;SDS011;59919;48.112;16.280;2023-03-01T04:32:28;8.88;;;6.95;;
71759;SDS011;59919;48.112;16.280;2023-03-01T04:35:02;8.98;;;7.20;;
71759;SDS011;59919;48.112;16.280;2023-03-01T04:37:35;9.20;;;6.82;;
71759;SDS011;59919;48.112;16.280;2023-03-01T04:40:07;8.48;;;6.20;;
71759;SDS011;59919;48.112;16.280;2023-03-01T04:42:46;10.52;;;7.43;;
71759;SDS011;59919;48.112;16.280;2023-03-01T04:45:17;9.20;;;7.35;;
71759;SDS011;59919;48.112;16.280;2023-03-01T04:47:51;10.65;;;7.15;;
71759;SDS011;59919;48.112;16.280;2023-03-01T04:50:22;10.13;;;7.18;;
71759;SDS011;59919;48.112;16.280;2023-03-01T04:52:54;9.10;;;7.15;;
71759;SDS011;59919;48.112;16.280;2023-03-01T04:55:29;10.50;;;7.40;;
71759;SDS011;59919;48.112;16.280;2023-03-01T04:58:00;10.35;;;7.00;;
71759;SDS011;59919;48.112;16.280;2023-03-01T05:00:36;9.30;;;7.20;;
71759;SDS011;59919;48.112;16.280;2023-03-01T05:03:07;9.52;;;7.70;;
71759;SDS011;59919;48.112;16.280;2023-03-01T05:05:39;8.73;;;7.45;;
71759;SDS011;59919;48.112;16.280;2023-03-01T05:08:10;9.27;;;7.30;;
71759;SDS011;59919;48.112;16.280;2023-03-01T05:10:51;8.57;;;7.38;;
71759;SDS011;59919;48.112;16.280;2023-03-01T05:13:23;10.43;;;7.70;;
71759;SDS011;59919;48.112;16.280;2023-03-01T05:16:00;9.80;;;7.32;;
71759;SDS011;59919;48.112;16.280;2023-03-01T05:18:37;11.27;;;7.68;;
71759;SDS011;59919;48.112;16.280;2023-03-01T05:21:10;10.00;;;7.80;;
71759;SDS011;59919;48.112;16.280;2023-03-01T05:23:43;10.23;;;7.85;;
71759;SDS011;59919;48.112;16.280;2023-03-01T05:26:17;10.95;;;7.82;;
71759;SDS011;59919;48.112;16.280;2023-03-01T05:28:52;10.32;;;7.90;;
71759;SDS011;59919;48.112;16.280;2023-03-01T05:31:29;10.82;;;7.80;;
71759;SDS011;59919;48.112;16.280;2023-03-01T05:34:01;9.95;;;7.38;;
71759;SDS011;59919;48.112;16.280;2023-03-01T05:36:32;10.07;;;7.75;;
71759;SDS011;59919;48.112;16.280;2023-03-01T05:39:05;10.73;;;8.18;;
71759;SDS011;59919;48.112;16.280;2023-03-01T05:41:36;11.45;;;8.30;;
71759;SDS011;59919;48.112;16.280;2023-03-01T05:44:07;9.48;;;7.45;;
71759;SDS011;59919;48.112;16.280;2023-03-01T05:46:38;10.48;;;8.30;;
71759;SDS011;59919;48.112;16.280;2023-03-01T05:49:09;11.13;;;7.72;;
71759;SDS011;59919;48.112;16.280;2023-03-01T05:51:43;11.35;;;8.32;;
71759;SDS011;59919;48.112;16.280;2023-03-01T05:54:20;10.48;;;7.80;;
71759;SDS011;59919;48.112;16.280;2023-03-01T05:56:52;12.73;;;8.52;;
71759;SDS011;59919;48.112;16.280;2023-03-01T05:59:23;10.18;;;7.65;;
71759;SDS011;59919;48.112;16.280;2023-03-01T06:01:54;10.70;;;7.70;;
71759;SDS011;59919;48.112;16.280;2023-03-01T06:04:25;11.32;;;8.07;;
71759;SDS011;59919;48.112;16.280;2023-03-01T06:06:56;10.00;;;8.05;;
71759;SDS011;59919;48.112;16.280;2023-03-01T06:09:27;10.52;;;7.80;;
71759;SDS011;59919;48.112;16.280;2023-03-01T06:11:58;12.10;;;8.68;;
71759;SDS011;59919;48.112;16.280;2023-03-01T06:14:31;11.23;;;8.27;;
71759;SDS011;59919;48.112;16.280;2023-03-01T06:17:05;10.55;;;7.68;;
71759;SDS011;59919;48.112;16.280;2023-03-01T06:19:37;11.15;;;8.30;;
71759;SDS011;59919;48.112;16.280;2023-03-01T06:22:08;11.10;;;8.05;;
71759;SDS011;59919;48.112;16.280;2023-03-01T06:24:39;10.35;;;7.95;;
71759;SDS011;59919;48.112;16.280;2023-03-01T06:27:15;11.67;;;7.73;;
71759;SDS011;59919;48.112;16.280;2023-03-01T06:29:47;10.68;;;8.35;;
71759;SDS011;59919;48.112;16.280;2023-03-01T06:32:19;12.55;;;8.23;;
71759;SDS011;59919;48.112;16.280;2023-03-01T06:34:50;14.00;;;8.35;;
71759;SDS011;59919;48.112;16.280;2023-03-01T06:37:21;10.43;;;7.93;;
71759;SDS011;59919;48.112;16.280;2023-03-01T06:39:55;10.68;;;8.32;;
71759;SDS011;59919;48.112;16.280;2023-03-01T06:42:26;12.30;;;8.50;;
71759;SDS011;59919;48.112;16.280;2023-03-01T06:44:57;10.75;;;8.38;;
71759;SDS011;59919;48.112;16.280;2023-03-01T06:47:28;10.82;;;8.50;;
71759;SDS011;59919;48.112;16.280;2023-03-01T06:50:03;11.77;;;8.43;;
71759;SDS011;59919;48.112;16.280;2023-03-01T06:52:34;9.55;;;6.00;;
71759;SDS011;59919;48.112;16.280;2023-03-01T06:55:08;7.60;;;5.70;;
71759;SDS011;59919;48.112;16.280;2023-03-01T06:57:39;7.60;;;6.00;;
71759;SDS011;59919;48.112;16.280;2023-03-01T07:00:13;6.60;;;5.10;;
71759;SDS011;59919;48.112;16.280;2023-03-01T07:02:45;9.43;;;6.15;;
71759;SDS011;59919;48.112;16.280;2023-03-01T07:05:16;7.40;;;5.30;;
71759;SDS011;59919;48.112;16.280;2023-03-01T07:07:50;7.97;;;5.95;;
71759;SDS011;59919;48.112;16.280;2023-03-01T07:10:21;8.07;;;5.40;;
71759;SDS011;59919;48.112;16.280;2023-03-01T07:12:56;7.15;;;5.82;;
71759;SDS011;59919;48.112;16.280;2023-03-01T07:15:27;11.85;;;6.07;;
71759;SDS011;59919;48.112;16.280;2023-03-01T07:18:17;7.25;;;5.72;;
71759;SDS011;59919;48.112;16.280;2023-03-01T07:21:09;6.90;;;5.18;;
71759;SDS011;59919;48.112;16.280;2023-03-01T07:23:43;8.57;;;5.88;;
71759;SDS011;59919;48.112;16.280;2023-03-01T07:26:21;7.60;;;6.20;;
71759;SDS011;59919;48.112;16.280;2023-03-01T07:28:52;7.10;;;5.80;;
71759;SDS011;59919;48.112;16.280;2023-03-01T07:31:23;9.75;;;5.70;;
71759;SDS011;59919;48.112;16.280;2023-03-01T07:33:54;8.80;;;5.80;;
71759;SDS011;59919;48.112;16.280;2023-03-01T07:36:26;8.52;;;6.15;;
71759;SDS011;59919;48.112;16.280;2023-03-01T07:41:34;10.55;;;6.35;;
71759;SDS011;59919;48.112;16.280;2023-03-01T07:44:05;9.30;;;6.97;;
71759;SDS011;59919;48.112;16.280;2023-03-01T07:46:36;9.77;;;6.60;;
71759;SDS011;59919;48.112;16.280;2023-03-01T07:49:10;8.35;;;6.60;;
71759;SDS011;59919;48.112;16.280;2023-03-01T07:51:41;8.30;;;6.28;;
71759;SDS011;59919;48.112;16.280;2023-03-01T07:54:14;11.52;;;6.60;;
71759;SDS011;59919;48.112;16.280;2023-03-01T07:56:45;9.30;;;7.10;;
71759;SDS011;59919;48.112;16.280;2023-03-01T07:59:19;7.80;;;6.60;;
71759;SDS011;59919;48.112;16.280;2023-03-01T08:01:59;10.30;;;6.53;;
71759;SDS011;59919;48.112;16.280;2023-03-01T08:04:30;11.93;;;7.32;;
71759;SDS011;59919;48.112;16.280;2023-03-01T08:07:04;14.02;;;7.38;;
71759;SDS011;59919;48.112;16.280;2023-03-01T08:09:35;9.63;;;7.15;;
71759;SDS011;59919;48.112;16.280;2023-03-01T08:12:12;9.68;;;7.25;;
71759;SDS011;59919;48.112;16.280;2023-03-01T08:14:43;11.05;;;7.72;;
71759;SDS011;59919;48.112;16.280;2023-03-01T08:17:16;11.95;;;8.00;;
71759;SDS011;59919;48.112;16.280;2023-03-01T08:19:50;11.50;;;7.50;;
71759;SDS011;59919;48.112;16.280;2023-03-01T08:22:21;9.95;;;6.78;;
71759;SDS011;59919;48.112;16.280;2023-03-01T08:24:54;6.80;;;5.53;;
71759;SDS011;59919;48.112;16.280;2023-03-01T08:27:30;8.48;;;6.70;;
71759;SDS011;59919;48.112;16.280;2023-03-01T08:30:01;7.88;;;5.95;;
71759;SDS011;59919;48.112;16.280;2023-03-01T08:32:36;8.50;;;6.45;;
71759;SDS011;59919;48.112;16.280;2023-03-01T08:35:08;10.27;;;6.03;;
71759;SDS011;59919;48.112;16.280;2023-03-01T08:37:42;9.35;;;5.80;;
71759;SDS011;59919;48.112;16.280;2023-03-01T08:40:16;10.27;;;6.70;;
71759;SDS011;59919;48.112;16.280;2023-03-01T08:42:47;9.02;;;6.78;;
71759;SDS011;59919;48.112;16.280;2023-03-01T08:45:20;9.75;;;6.72;;
71759;SDS011;59919;48.112;16.280;2023-03-01T08:47:52;10.30;;;7.03;;
71759;SDS011;59919;48.112;16.280;2023-03-01T08:50:23;10.45;;;6.90;;
71759;SDS011;59919;48.112;16.280;2023-03-01T08:52:57;11.38;;;7.70;;
71759;SDS011;59919;48.112;16.280;2023-03-01T08:55:28;10.73;;;7.43;;
71759;SDS011;59919;48.112;16.280;2023-03-01T08:57:59;11.05;;;7.90;;
71759;SDS011;59919;48.112;16.280;2023-03-01T09:00:30;9.40;;;7.00;;
71759;SDS011;59919;48.112;16.280;2023-03-01T09:03:05;12.43;;;7.28;;
71759;SDS011;59919;48.112;16.280;2023-03-01T09:05:36;10.30;;;7.82;;
71759;SDS011;59919;48.112;16.280;2023-03-01T09:08:07;11.52;;;7.75;;
71759;SDS011;59919;48.112;16.280;2023-03-01T09:10:41;9.75;;;7.40;;
71759;SDS011;59919;48.112;16.280;2023-03-01T09:13:14;11.15;;;8.15;;
71759;SDS011;59919;48.112;16.280;2023-03-01T09:15:45;10.43;;;7.45;;
71759;SDS011;59919;48.112;16.280;2023-03-01T09:18:16;10.63;;;7.43;;
71759;SDS011;59919;48.112;16.280;2023-03-01T09:20:47;11.27;;;8.13;;
71759;SDS011;59919;48.112;16.280;2023-03-01T09:23:21;10.52;;;7.82;;
71759;SDS011;59919;48.112;16.280;2023-03-01T09:25:54;11.50;;;7.85;;
71759;SDS011;59919;48.112;16.280;2023-03-01T09:28:25;11.50;;;7.25;;
71759;SDS011;59919;48.112;16.280;2023-03-01T09:30:59;12.02;;;7.70;;
71759;SDS011;59919;48.112;16.280;2023-03-01T09:33:31;16.00;;;7.20;;
71759;SDS011;59919;48.112;16.280;2023-03-01T09:36:06;12.48;;;6.97;;
71759;SDS011;59919;48.112;16.280;2023-03-01T09:47:45;13.55;;;6.82;;
71759;SDS011;59919;48.112;16.280;2023-03-01T09:50:38;7.40;;;5.90;;
71759;SDS011;59919;48.112;16.280;2023-03-01T09:53:32;10.02;;;5.95;;
71759;SDS011;59919;48.112;16.280;2023-03-01T09:59:40;11.20;;;6.35;;
71759;SDS011;59919;48.112;16.280;2023-03-01T10:02:49;8.30;;;5.60;;
71759;SDS011;59919;48.112;16.280;2023-03-01T10:08:46;7.07;;;5.57;;
71759;SDS011;59919;48.112;16.280;2023-03-01T10:11:52;10.65;;;5.90;;
71759;SDS011;59919;48.112;16.280;2023-03-01T10:15:00;9.75;;;6.00;;
71759;SDS011;59919;48.112;16.280;2023-03-01T10:18:22;10.27;;;5.78;;
71759;SDS011;59919;48.112;16.280;2023-03-01T10:21:17;11.35;;;6.03;;
71759;SDS011;59919;48.112;16.280;2023-03-01T10:23:51;10.35;;;6.03;;
71759;SDS011;59919;48.112;16.280;2023-03-01T10:29:19;9.23;;;5.57;;
71759;SDS011;59919;48.112;16.280;2023-03-01T10:31:56;9.27;;;6.20;;
71759;SDS011;59919;48.112;16.280;2023-03-01T10:34:29;9.90;;;5.85;;
71759;SDS011;59919;48.112;16.280;2023-03-01T10:39:58;9.82;;;6.15;;
71759;SDS011;59919;48.112;16.280;2023-03-01T10:42:46;13.25;;;6.25;;
71759;SDS011;59919;48.112;16.280;2023-03-01T10:48:18;9.20;;;5.43;;
71759;SDS011;59919;48.112;16.280;2023-03-01T10:53:37;9.05;;;6.07;;
71759;SDS011;59919;48.112;16.280;2023-03-01T10:56:14;9.38;;;5.88;;
71759;SDS011;59919;48.112;16.280;2023-03-01T10:58:56;7.88;;;5.40;;
71759;SDS011;59919;48.112;16.280;2023-03-01T11:01:34;9.23;;;6.18;;
71759;SDS011;59919;48.112;16.280;2023-03-01T11:06:44;8.52;;;6.22;;
71759;SDS011;59919;48.112;16.280;2023-03-01T11:09:33;10.57;;;5.95;;
71759;SDS011;59919;48.112;16.280;2023-03-01T11:12:13;8.57;;;5.90;;
71759;SDS011;59919;48.112;16.280;2023-03-01T11:14:47;6.60;;;5.65;;
71759;SDS011;59919;48.112;16.280;2023-03-01T11:17:29;7.57;;;6.20;;
71759;SDS011;59919;48.112;16.280;2023-03-01T11:20:06;7.60;;;5.78;;
71759;SDS011;59919;48.112;16.280;2023-03-01T11:25:26;8.07;;;5.85;;
71759;SDS011;59919;48.112;16.280;2023-03-01T11:28:14;9.35;;;6.15;;
71759;SDS011;59919;48.112;16.280;2023-03-01T11:42:14;7.60;;;6.25;;
71759;SDS011;59919;48.112;16.280;2023-03-01T11:44:52;6.43;;;5.22;;
71759;SDS011;59919;48.112;16.280;2023-03-01T11:50:36;9.57;;;6.20;;
71759;SDS011;59919;48.112;16.280;2023-03-01T11:53:18;8.48;;;5.85;;
71759;SDS011;59919;48.112;16.280;2023-03-01T11:56:15;8.52;;;5.40;;
71759;SDS011;59919;48.112;16.280;2023-03-01T11:59:08;8.80;;;5.47;;
71759;SDS011;59919;48.112;16.280;2023-03-01T12:02:07;8.43;;;5.88;;
71759;SDS011;59919;48.112;16.280;2023-03-01T12:17:02;7.93;;;5.40;;
71759;SDS011;59919;48.112;16.280;2023-03-01T12:19:33;10.45;;;6.10;;
71759;SDS011;59919;48.112;16.280;2023-03-01T12:22:13;11.07;;;6.20;;
71759;SDS011;59919;48.112;16.280;2023-03-01T12:33:51;11.82;;;6.05;;
71759;SDS011;59919;48.112;16.280;2023-03-01T12:50:48;11.85;;;5.47;;
71759;SDS011;59919;48.112;16.280;2023-03-01T12:56:10;7.55;;;5.57;;
71759;SDS011;59919;48.112;16.280;2023-03-01T13:07:37;11.88;;;5.72;;
71759;SDS011;59919;48.112;16.280;2023-03-01T13:10:40;6.95;;;5.45;;
71759;SDS011;59919;48.112;16.280;2023-03-01T13:13:21;8.10;;;5.88;;
71759;SDS011;59919;48.112;16.280;2023-03-01T13:15:56;10.70;;;6.15;;
71759;SDS011;59919;48.112;16.280;2023-03-01T13:18:41;9.38;;;5.85;;
71759;SDS011;59919;48.112;16.280;2023-03-01T13:21:12;6.75;;;4.88;;
71759;SDS011;59919;48.112;16.280;2023-03-01T13:24:00;8.00;;;5.55;;
71759;SDS011;59919;48.112;16.280;2023-03-01T13:26:31;9.82;;;5.65;;
71759;SDS011;59919;48.112;16.280;2023-03-01T13:29:44;9.27;;;5.57;;
71759;SDS011;59919;48.112;16.280;2023-03-01T13:32:35;8.95;;;5.25;;
71759;SDS011;59919;48.112;16.280;2023-03-01T13:37:41;7.13;;;5.20;;
71759;SDS011;59919;48.112;16.280;2023-03-01T13:42:50;7.90;;;5.20;;
71759;SDS011;59919;48.112;16.280;2023-03-01T13:48:26;6.78;;;5.35;;
71759;SDS011;59919;48.112;16.280;2023-03-01T13:51:00;8.68;;;5.30;;
71759;SDS011;59919;48.112;16.280;2023-03-01T13:53:35;7.18;;;5.13;;
71759;SDS011;59919;48.112;16.280;2023-03-01T13:56:13;8.73;;;5.65;;
71759;SDS011;59919;48.112;16.280;2023-03-01T13:58:55;8.40;;;5.03;;
71759;SDS011;59919;48.112;16.280;2023-03-01T14:04:24;7.05;;;5.40;;
71759;SDS011;59919;48.112;16.280;2023-03-01T14:07:19;8.23;;;4.75;;
71759;SDS011;59919;48.112;16.280;2023-03-01T14:09:55;9.82;;;5.07;;
71759;SDS011;59919;48.112;16.280;2023-03-01T14:12:39;6.57;;;4.80;;
71759;SDS011;59919;48.112;16.280;2023-03-01T14:15:19;8.55;;;5.15;;
71759;SDS011;59919;48.112;16.280;2023-03-01T14:20:49;6.35;;;5.10;;
71759;SDS011;59919;48.112;16.280;2023-03-01T14:23:22;8.18;;;4.88;;
71759;SDS011;59919;48.112;16.280;2023-03-01T14:26:00;9.15;;;5.45;;
71759;SDS011;59919;48.112;16.280;2023-03-01T14:28:33;6.63;;;4.78;;
71759;SDS011;59919;48.112;16.280;2023-03-01T14:34:05;6.35;;;4.97;;
71759;SDS011;59919;48.112;16.280;2023-03-01T14:36:48;7.13;;;5.15;;
71759;SDS011;59919;48.112;16.280;2023-03-01T14:39:24;7.18;;;5.43;;
71759;SDS011;59919;48.112;16.280;2023-03-01T14:42:00;7.28;;;5.05;;
71759;SDS011;59919;48.112;16.280;2023-03-01T14:44:31;6.68;;;4.70;;
71759;SDS011;59919;48.112;16.280;2023-03-01T14:47:10;7.35;;;5.22;;
71759;SDS011;59919;48.112;16.280;2023-03-01T14:49:44;5.88;;;4.90;;
71759;SDS011;59919;48.112;16.280;2023-03-01T14:52:39;7.63;;;5.35;;
71759;SDS011;59919;48.112;16.280;2023-03-01T14:55:20;7.15;;;5.13;;
71759;SDS011;59919;48.112;16.280;2023-03-01T14:58:06;6.47;;;5.13;;
71759;SDS011;59919;48.112;16.280;2023-03-01T15:00:46;6.88;;;6.03;;
71759;SDS011;59919;48.112;16.280;2023-03-01T15:03:37;6.35;;;5.15;;
71759;SDS011;59919;48.112;16.280;2023-03-01T15:06:18;5.88;;;4.65;;
71759;SDS011;59919;48.112;16.280;2023-03-01T15:08:51;7.03;;;4.88;;
71759;SDS011;59919;48.112;16.280;2023-03-01T15:11:29;7.87;;;4.43;;
71759;SDS011;59919;48.112;16.280;2023-03-01T15:14:03;5.75;;;4.80;;
71759;SDS011;59919;48.112;16.280;2023-03-01T15:17:48;5.75;;;4.47;;
71759;SDS011;59919;48.112;16.280;2023-03-01T15:20:16;7.18;;;4.47;;
71759;SDS011;59919;48.112;16.280;2023-03-01T15:22:56;6.47;;;4.97;;
71759;SDS011;59919;48.112;16.280;2023-03-01T15:25:28;6.00;;;4.70;;
71759;SDS011;59919;48.112;16.280;2023-03-01T15:28:01;6.75;;;4.70;;
71759;SDS011;59919;48.112;16.280;2023-03-01T15:30:33;5.65;;;4.75;;
71759;SDS011;59919;48.112;16.280;2023-03-01T15:39:02;7.30;;;4.83;;
71759;SDS011;59919;48.112;16.280;2023-03-01T15:41:46;5.97;;;4.60;;
71759;SDS011;59919;48.112;16.280;2023-03-01T15:44:26;7.05;;;5.20;;
71759;SDS011;59919;48.112;16.280;2023-03-01T15:47:08;6.53;;;4.60;;
71759;SDS011;59919;48.112;16.280;2023-03-01T15:49:56;9.02;;;4.90;;
71759;SDS011;59919;48.112;16.280;2023-03-01T15:52:39;7.38;;;5.32;;
71759;SDS011;59919;48.112;16.280;2023-03-01T15:55:16;6.00;;;5.10;;
71759;SDS011;59919;48.112;16.280;2023-03-01T15:57:58;8.35;;;5.20;;
71759;SDS011;59919;48.112;16.280;2023-03-01T16:00:31;7.65;;;5.35;;
71759;SDS011;59919;48.112;16.280;2023-03-01T16:03:02;7.10;;;4.82;;
71759;SDS011;59919;48.112;16.280;2023-03-01T16:05:35;6.40;;;4.78;;
71759;SDS011;59919;48.112;16.280;2023-03-01T16:08:06;6.70;;;5.03;;
71759;SDS011;59919;48.112;16.280;2023-03-01T16:10:41;6.65;;;5.20;;
71759;SDS011;59919;48.112;16.280;2023-03-01T16:13:15;8.27;;;5.47;;
71759;SDS011;59919;48.112;16.280;2023-03-01T16:15:48;7.15;;;4.78;;
71759;SDS011;59919;48.112;16.280;2023-03-01T16:18:19;8.20;;;5.22;;
71759;SDS011;59919;48.112;16.280;2023-03-01T16:20:50;7.70;;;5.32;;
71759;SDS011;59919;48.112;16.280;2023-03-01T16:23:21;6.32;;;5.22;;
71759;SDS011;59919;48.112;16.280;2023-03-01T16:25:58;7.40;;;5.32;;
71759;SDS011;59919;48.112;16.280;2023-03-01T16:28:30;7.63;;;5.53;;
71759;SDS011;59919;48.112;16.280;2023-03-01T16:31:01;6.65;;;4.95;;
71759;SDS011;59919;48.112;16.280;2023-03-01T16:33:32;5.70;;;4.82;;
71759;SDS011;59919;48.112;16.280;2023-03-01T16:36:08;8.55;;;5.18;;
71759;SDS011;59919;48.112;16.280;2023-03-01T16:38:40;7.35;;;5.40;;
71759;SDS011;59919;48.112;16.280;2023-03-01T16:41:12;6.90;;;5.18;;
71759;SDS011;59919;48.112;16.280;2023-03-01T16:43:44;6.45;;;5.38;;
71759;SDS011;59919;48.112;16.280;2023-03-01T16:46:21;7.80;;;5.53;;
71759;SDS011;59919;48.112;16.280;2023-03-01T16:48:56;6.45;;;5.35;;
71759;SDS011;59919;48.112;16.280;2023-03-01T16:51:30;8.10;;;5.30;;
71759;SDS011;59919;48.112;16.280;2023-03-01T16:54:02;7.65;;;5.40;;
71759;SDS011;59919;48.112;16.280;2023-03-01T16:56:36;7.60;;;5.85;;
71759;SDS011;59919;48.112;16.280;2023-03-01T16:59:10;7.90;;;5.85;;
71759;SDS011;59919;48.112;16.280;2023-03-01T17:01:41;9.15;;;6.45;;
71759;SDS011;59919;48.112;16.280;2023-03-01T17:04:12;6.78;;;5.25;;
71759;SDS011;59919;48.112;16.280;2023-03-01T17:06:43;8.10;;;5.57;;
71759;SDS011;59919;48.112;16.280;2023-03-01T17:09:17;8.52;;;5.88;;
71759;SDS011;59919;48.112;16.280;2023-03-01T17:11:48;7.53;;;5.28;;
71759;SDS011;59919;48.112;16.280;2023-03-01T17:14:20;7.60;;;5.70;;
71759;SDS011;59919;48.112;16.280;2023-03-01T17:16:51;7.22;;;5.35;;
71759;SDS011;59919;48.112;16.280;2023-03-01T17:19:25;7.85;;;5.75;;
71759;SDS011;59919;48.112;16.280;2023-03-01T17:21:56;6.75;;;5.50;;
71759;SDS011;59919;48.112;16.280;2023-03-01T17:24:28;8.52;;;5.93;;
71759;SDS011;59919;48.112;16.280;2023-03-01T17:27:04;7.88;;;5.57;;
71759;SDS011;59919;48.112;16.280;2023-03-01T17:29:35;7.25;;;5.32;;
71759;SDS011;59919;48.112;16.280;2023-03-01T17:32:09;6.15;;;5.15;;
71759;SDS011;59919;48.112;16.280;2023-03-01T17:34:40;6.90;;;5.25;;